Time;durP1;ratioP1;P1;durP2;ratioP2;P2;SDS_P1;SDS_P2;PMS_P1;PMS_P2;Temp;Humidity;BMP_temperature;BMP_pressure;BME280_temperature;BME280_humidity;BME280_pressure;Samples;Min_cycle;Max_cycle;Signal;HPM_P1;HPM_P2
2024/03/07 00:02:13;;;;;;;45.88;22.17;;;;;;;0.04;100.00;102734.50;5090825;28;20028;-82
2024/03/07 00:04:39;;;;;;;43.20;21.60;;;;;;;0.02;100.00;102741.50;5091148;28;20125;-82
2024/03/07 00:07:05;;;;;;;50.28;23.52;;;;;;;-0.01;100.00;102731.94;5092573;28;20624;-82
2024/03/07 00:09:32;;;;;;;44.58;21.38;;;;;;;-0.02;100.00;102740.69;5090258;28;20226;-83
2024/03/07 00:11:58;;;;;;;43.83;21.80;;;;;;;-0.06;100.00;102735.53;5090678;28;20063;-83
2024/03/07 00:14:26;;;;;;;46.75;21.27;;;;;;;-0.08;100.00;102737.31;5090125;28;20369;-82
2024/03/07 00:16:56;;;;;;;41.83;21.73;;;;;;;-0.11;100.00;102746.06;5090510;28;20024;-82
2024/03/07 00:19:25;;;;;;;44.47;21.27;;;;;;;-0.14;100.00;102750.50;5072509;28;20190;-82
2024/03/07 00:21:51;;;;;;;46.35;22.65;;;;;;;-0.18;100.00;102741.81;5072090;28;20023;-82
2024/03/07 00:24:16;;;;;;;45.80;21.02;;;;;;;-0.20;100.00;102744.44;5089946;28;20492;-83
2024/03/07 00:26:42;;;;;;;46.10;22.58;;;;;;;-0.23;100.00;102744.50;5071842;28;20040;-81
2024/03/07 00:29:07;;;;;;;43.58;21.75;;;;;;;-0.23;100.00;102746.25;5090555;28;20080;-83
2024/03/07 00:31:33;;;;;;;48.45;21.67;;;;;;;-0.23;100.00;102749.72;5071622;28;20502;-83
2024/03/07 00:33:59;;;;;;;41.97;20.27;;;;;;;-0.25;100.00;102745.44;5090416;28;20517;-84
2024/03/07 00:36:25;;;;;;;42.78;21.83;;;;;;;-0.27;100.00;102745.44;5089985;28;20082;-83
2024/03/07 00:38:51;;;;;;;50.40;22.85;;;;;;;-0.28;100.00;102748.94;5072008;28;20059;-83
2024/03/07 00:41:17;;;;;;;44.35;21.33;;;;;;;-0.31;100.00;102745.47;5071631;28;20036;-83
2024/03/07 00:43:43;;;;;;;38.75;19.70;;;;;;;-0.34;100.00;102748.16;5090506;28;20036;-83
2024/03/07 00:46:10;;;;;;;42.08;20.48;;;;;;;-0.38;100.00;102748.19;5055075;28;20456;-83
2024/03/07 00:48:36;;;;;;;48.15;21.40;;;;;;;-0.41;100.00;102740.38;5071341;28;20059;-82
2024/03/07 00:51:01;;;;;;;42.20;21.20;;;;;;;-0.44;100.00;102731.72;5071470;28;20024;-83
2024/03/07 00:53:27;;;;;;;50.08;22.15;;;;;;;-0.46;100.00;102729.13;5054829;28;20067;-81
2024/03/07 00:55:53;;;;;;;46.17;21.92;;;;;;;-0.48;100.00;102728.28;5071509;28;20035;-82
2024/03/07 00:58:19;;;;;;;45.88;22.02;;;;;;;-0.49;100.00;102737.03;5089849;28;20060;-85
2024/03/07 01:00:44;;;;;;;44.53;21.52;;;;;;;-0.52;100.00;102734.47;5090007;28;20117;-82
2024/03/07 01:03:13;;;;;;;42.00;21.10;;;;;;;-0.54;100.00;102725.75;5071546;28;20024;-82
2024/03/07 01:05:39;;;;;;;50.40;23.55;;;;;;;-0.56;100.00;102730.16;5071326;28;20020;-82
2024/03/07 01:08:05;;;;;;;45.97;21.45;;;;;;;-0.58;100.00;102734.56;5072560;28;20135;-82
2024/03/07 01:10:31;;;;;;;50.58;24.17;;;;;;;-0.61;100.00;102730.22;5092887;28;20119;-82
2024/03/07 01:13:01;;;;;;;44.83;22.75;;;;;;;-0.63;100.00;102728.50;5075097;28;20035;-82
2024/03/07 01:15:27;;;;;;;44.17;21.50;;;;;;;-0.66;100.00;102732.00;5093070;28;20028;-82
2024/03/07 01:17:52;;;;;;;49.85;22.17;;;;;;;-0.67;100.00;102730.31;5093300;28;20023;-82
2024/03/07 01:20:18;;;;;;;43.05;21.00;;;;;;;-0.70;100.00;102722.50;5074691;28;20460;-82
2024/03/07 01:22:44;;;;;;;48.17;21.15;;;;;;;-0.72;100.00;102721.63;5074395;28;20042;-81
2024/03/07 01:25:09;;;;;;;44.28;22.48;;;;;;;-0.74;100.00;102721.66;5075084;28;20083;-82
2024/03/07 01:27:34;;;;;;;43.78;22.25;;;;;;;-0.73;100.00;102719.94;5092781;28;20341;-81
2024/03/07 01:30:01;;;;;;;43.25;21.80;;;;;;;-0.74;100.00;102715.56;5092927;28;20119;-80
2024/03/07 01:32:27;;;;;;;44.70;21.23;;;;;;;-0.74;100.00;102715.56;5074395;28;20032;-82
2024/03/07 01:34:53;;;;;;;48.78;21.48;;;;;;;-0.76;100.00;102710.38;5074548;28;20490;-81
2024/03/07 01:37:21;;;;;;;40.55;21.80;;;;;;;-0.73;100.00;102714.69;5092882;28;20036;-81
2024/03/07 01:39:46;;;;;;;47.38;23.30;;;;;;;-0.69;100.00;102711.13;5074321;28;20024;-81
2024/03/07 01:42:12;;;;;;;53.72;24.33;;;;;;;-0.65;100.00;102714.59;5057845;28;20046;-81
2024/03/07 01:44:40;;;;;;;53.00;24.50;;;;;;;-0.67;100.00;102716.34;5057361;28;20052;-82
2024/03/07 01:47:06;;;;;;;49.75;22.40;;;;;;;-0.72;100.00;102717.28;5092626;28;20039;-81
2024/03/07 01:49:32;;;;;;;43.72;22.70;;;;;;;-0.74;100.00;102720.81;5092063;28;20040;-81
2024/03/07 01:51:58;;;;;;;49.25;22.55;;;;;;;-0.76;100.00;102714.72;5092580;28;20128;-82
2024/03/07 01:54:25;;;;;;;47.28;22.23;;;;;;;-0.76;100.00;102712.09;5092509;28;20028;-81
2024/03/07 01:56:51;;;;;;;51.13;22.80;;;;;;;-0.75;100.00;102712.09;5073706;28;20032;-82
2024/03/07 01:59:18;;;;;;;48.50;22.90;;;;;;;-0.75;100.00;102713.84;5074166;28;20034;-81
2024/03/07 02:01:46;;;;;;;47.08;23.05;;;;;;;-0.77;100.00;102710.38;5092201;28;20043;-82
2024/03/07 02:04:12;;;;;;;47.50;22.85;;;;;;;-0.79;100.00;102710.41;5092416;28;20472;-81
2024/03/07 02:06:38;;;;;;;49.20;21.80;;;;;;;-0.80;100.00;102708.69;5091772;28;20089;-82
2024/03/07 02:09:04;;;;;;;47.17;22.88;;;;;;;-0.83;100.00;102705.25;5073935;28;20048;-82
2024/03/07 02:11:30;;;;;;;47.70;23.52;;;;;;;-0.86;100.00;102706.13;5092302;28;20421;-83
2024/03/07 02:13:55;;;;;;;45.35;21.88;;;;;;;-0.88;100.00;102700.09;5074121;28;20058;-82
2024/03/07 02:16:21;;;;;;;47.50;22.25;;;;;;;-0.90;100.00;102697.50;5074242;28;20124;-82
2024/03/07 02:18:46;;;;;;;48.10;23.83;;;;;;;-0.90;100.00;102692.25;5091799;28;20031;-83
2024/03/07 02:21:12;;;;;;;45.75;23.13;;;;;;;-0.90;100.00;102699.22;5056776;28;20123;-83
2024/03/07 02:23:37;;;;;;;48.78;23.73;;;;;;;-0.91;100.00;102695.75;5091562;28;20512;-83
2024/03/07 02:26:03;;;;;;;53.70;23.80;;;;;;;-0.91;100.00;102690.53;5073679;28;20463;-82
2024/03/07 02:28:29;;;;;;;59.63;26.45;;;;;;;-0.89;100.00;102690.50;5092131;28;20447;-83
2024/03/07 02:30:54;;;;;;;46.35;24.08;;;;;;;-0.89;100.00;102686.13;5073279;28;20047;-83
2024/03/07 02:33:20;;;;;;;54.60;23.70;;;;;;;-0.88;100.00;102692.25;5091896;28;20039;-82
2024/03/07 02:35:45;;;;;;;52.42;24.58;;;;;;;-0.89;100.00;102691.34;5091516;28;20028;-83
2024/03/07 02:38:11;;;;;;;56.78;25.70;;;;;;;-0.89;100.00;102687.88;5073801;28;20352;-82
2024/03/07 02:40:36;;;;;;;63.75;26.48;;;;;;;-0.87;100.00;102687.88;5091511;28;20024;-83
2024/03/07 02:43:04;;;;;;;60.47;26.55;;;;;;;-0.87;100.00;102673.03;5073516;28;20084;-83
2024/03/07 02:45:30;;;;;;;46.50;24.63;;;;;;;-0.87;100.00;102675.66;5091729;28;20195;-82
2024/03/07 02:47:56;;;;;;;51.60;25.02;;;;;;;-0.85;100.00;102673.91;5073002;28;20503;-83
2024/03/07 02:50:22;;;;;;;51.15;24.98;;;;;;;-0.84;100.00;102669.53;5073173;28;20460;-82
2024/03/07 02:52:49;;;;;;;65.88;28.13;;;;;;;-0.84;100.00;102670.38;5091057;28;20130;-82
2024/03/07 02:55:15;;;;;;;60.95;27.48;;;;;;;-0.85;100.00;102673.91;5091518;28;20032;-81
2024/03/07 02:57:40;;;;;;;57.78;26.95;;;;;;;-0.81;100.00;102669.47;5072617;28;20030;-83
2024/03/07 03:00:19;;;;;;;65.32;28.77;;;;;;;-0.78;100.00;102672.91;5056409;28;20020;-82
2024/03/07 03:02:45;;;;;;;76.05;29.75;;;;;;;-0.76;100.00;102667.66;5090962;28;20024;-81
2024/03/07 03:05:10;;;;;;;82.15;31.00;;;;;;;-0.69;100.00;102663.22;5072805;28;20136;-82
2024/03/07 03:07:36;;;;;;;90.85;34.05;;;;;;;-0.65;100.00;102664.91;5091054;28;20533;-82
2024/03/07 03:10:07;;;;;;;86.63;32.20;;;;;;;-0.59;100.00;102670.91;5090428;28;20048;-81
2024/03/07 03:12:32;;;;;;;71.57;31.48;;;;;;;-0.58;100.00;102662.19;5091025;28;20028;-81
2024/03/07 03:14:58;;;;;;;83.05;32.55;;;;;;;-0.59;100.00;102660.44;5090504;28;20391;-82
2024/03/07 03:17:23;;;;;;;88.60;34.17;;;;;;;-0.60;100.00;102658.75;5072819;28;20149;-82
2024/03/07 03:19:51;;;;;;;93.75;33.45;;;;;;;-0.59;100.00;102662.22;5055451;28;20077;-82
2024/03/07 03:22:17;;;;;;;90.85;34.17;;;;;;;-0.55;100.00;102661.28;5055807;28;20034;-82
2024/03/07 03:24:42;;;;;;;87.72;32.53;;;;;;;-0.54;100.00;102657.75;5090089;28;20363;-85
2024/03/07 03:27:08;;;;;;;78.97;32.08;;;;;;;-0.56;100.00;102660.41;5072334;28;20448;-82
2024/03/07 03:29:34;;;;;;;95.53;35.42;;;;;;;-0.55;100.00;102661.28;5055862;28;20028;-82
2024/03/07 03:31:59;;;;;;;97.63;36.00;;;;;;;-0.52;100.00;102657.75;5090202;28;20032;-82
2024/03/07 03:34:26;;;;;;;96.40;34.90;;;;;;;-0.55;100.00;102656.91;5090635;28;20077;-82
2024/03/07 03:36:52;;;;;;;80.20;33.20;;;;;;;-0.55;100.00;102661.28;5055572;28;20419;-82
2024/03/07 03:39:20;;;;;;;94.20;36.70;;;;;;;-0.57;100.00;102658.69;5090787;28;20052;-82
2024/03/07 03:41:46;;;;;;;92.97;34.42;;;;;;;-0.54;100.00;102657.75;5071991;28;20132;-83
2024/03/07 03:44:11;;;;;;;102.53;35.53;;;;;;;-0.50;100.00;102654.22;5090977;28;20032;-82
2024/03/07 03:46:37;;;;;;;99.80;37.20;;;;;;;-0.47;100.00;102655.94;5073101;28;20413;-82
2024/03/07 03:49:02;;;;;;;102.13;37.63;;;;;;;-0.46;100.00;102649.78;5055236;28;20044;-82
2024/03/07 03:51:28;;;;;;;105.88;38.35;;;;;;;-0.44;100.00;102648.03;5072298;28;20031;-82
2024/03/07 03:53:53;;;;;;;113.32;37.92;;;;;;;-0.41;100.00;102648.84;5090908;28;20031;-82
2024/03/07 03:56:19;;;;;;;96.78;35.75;;;;;;;-0.41;100.00;102655.84;5090952;28;20024;-82
2024/03/07 03:58:44;;;;;;;106.88;36.50;;;;;;;-0.44;100.00;102650.66;5090117;28;20040;-82
2024/03/07 04:01:13;;;;;;;95.43;36.53;;;;;;;-0.45;100.00;102651.53;5089988;28;20390;-82
2024/03/07 04:03:39;;;;;;;117.70;39.28;;;;;;;-0.48;100.00;102651.59;5090095;28;20103;-82
2024/03/07 04:06:04;;;;;;;116.25;39.35;;;;;;;-0.50;100.00;102648.13;5089680;28;20031;-82
2024/03/07 04:08:30;;;;;;;112.70;39.10;;;;;;;-0.51;100.00;102641.16;5089875;28;20056;-82
2024/03/07 04:10:55;;;;;;;101.88;36.08;;;;;;;-0.54;100.00;102650.81;5089457;28;20036;-83
2024/03/07 04:13:22;;;;;;;120.90;39.97;;;;;;;-0.56;100.00;102649.09;5090091;28;20107;-82
2024/03/07 04:15:47;;;;;;;112.57;36.75;;;;;;;-0.60;100.00;102650.00;5071914;28;20038;-83
2024/03/07 04:18:13;;;;;;;104.30;38.25;;;;;;;-0.61;100.00;102650.88;5071400;28;20115;-83
2024/03/07 04:20:39;;;;;;;107.50;38.00;;;;;;;-0.64;100.00;102646.59;5090009;28;20051;-82
2024/03/07 04:23:05;;;;;;;108.88;38.55;;;;;;;-0.64;100.00;102643.97;5071188;28;20060;-82
2024/03/07 04:25:32;;;;;;;115.40;38.05;;;;;;;-0.66;100.00;102643.13;5071839;28;20422;-82
2024/03/07 04:27:58;;;;;;;89.25;35.65;;;;;;;-0.65;100.00;102644.84;5089452;28;20032;-83
2024/03/07 04:30:24;;;;;;;106.63;35.95;;;;;;;-0.61;100.00;102643.94;5089699;28;20464;-82
2024/03/07 04:32:49;;;;;;;104.88;37.00;;;;;;;-0.53;100.00;102646.44;5054843;28;20044;-82
2024/03/07 04:35:15;;;;;;;116.82;37.80;;;;;;;-0.44;100.00;102640.19;5071195;28;20032;-82
2024/03/07 04:37:41;;;;;;;126.68;40.10;;;;;;;-0.31;100.00;102641.72;5054824;28;20108;-82
2024/03/07 04:40:17;;;;;;;120.85;38.20;;;;;;;-0.19;100.00;102638.06;5089530;28;20417;-82
2024/03/07 04:42:50;;;;;;;111.35;37.67;;;;;;;-0.15;100.00;102639.72;5090589;28;20036;-82
2024/03/07 04:45:16;;;;;;;102.28;36.72;;;;;;;-0.15;100.00;102623.16;5075008;28;20035;-82
2024/03/07 04:47:42;;;;;;;104.20;35.92;;;;;;;-0.19;100.00;102631.06;5093824;28;20036;-82
2024/03/07 04:50:12;;;;;;;97.75;37.20;;;;;;;-0.24;100.00;102629.41;5093227;28;20028;-82
2024/03/07 04:52:39;;;;;;;110.30;37.75;;;;;;;-0.28;100.00;102627.75;5093916;28;20340;-82
2024/03/07 04:55:08;;;;;;;82.25;32.70;;;;;;;-0.35;100.00;102626.97;5093236;28;20080;-82
2024/03/07 04:57:35;;;;;;;103.22;36.53;;;;;;;-0.43;100.00;102628.84;5093791;28;20076;-81
2024/03/07 05:00:01;;;;;;;103.95;36.13;;;;;;;-0.49;100.00;102635.03;5058344;28;20027;-82
2024/03/07 05:02:26;;;;;;;95.13;34.25;;;;;;;-0.53;100.00;102628.13;5093545;28;20043;-82
2024/03/07 05:04:52;;;;;;;99.90;35.53;;;;;;;-0.59;100.00;102634.28;5093518;28;20453;-82
2024/03/07 05:07:17;;;;;;;101.63;35.78;;;;;;;-0.61;100.00;102632.59;5041137;28;20552;-82
2024/03/07 05:09:43;;;;;;;95.65;35.20;;;;;;;-0.59;100.00;102638.69;5093585;28;20027;-82
2024/03/07 05:12:09;;;;;;;107.07;36.95;;;;;;;-0.59;100.00;102641.28;5074597;28;20353;-82
2024/03/07 05:14:34;;;;;;;94.53;33.90;;;;;;;-0.60;100.00;102644.78;5074834;28;20024;-82
2024/03/07 05:17:05;;;;;;;121.40;39.00;;;;;;;-0.63;100.00;102637.00;5092967;28;20196;-82
2024/03/07 05:19:34;;;;;;;139.63;41.78;;;;;;;-0.61;100.00;102649.16;5093059;28;20074;-82
2024/03/07 05:22:01;;;;;;;137.95;42.08;;;;;;;-0.61;100.00;102645.66;5092805;28;20047;-83
2024/03/07 05:24:27;;;;;;;128.45;39.90;;;;;;;-0.61;100.00;102648.28;5092922;28;20491;-83
2024/03/07 05:26:53;;;;;;;126.88;41.13;;;;;;;-0.60;100.00;102636.94;5092953;28;20040;-83
2024/03/07 05:29:19;;;;;;;117.22;39.20;;;;;;;-0.61;100.00;102636.09;5092405;28;20024;-83
2024/03/07 05:31:48;;;;;;;121.00;38.90;;;;;;;-0.63;100.00;102635.22;5092763;28;20042;-82
2024/03/07 05:34:14;;;;;;;122.82;40.45;;;;;;;-0.64;100.00;102640.47;5092521;28;20036;-82
2024/03/07 05:36:45;;;;;;;118.95;38.72;;;;;;;-0.65;100.00;102641.38;5092784;28;20043;-82
2024/03/07 05:39:14;;;;;;;117.60;40.30;;;;;;;-0.68;100.00;102638.81;5092409;28;20107;-83
2024/03/07 05:41:41;;;;;;;108.05;38.45;;;;;;;-0.72;100.00;102633.63;5074142;28;20081;-82
2024/03/07 05:44:08;;;;;;;115.18;39.33;;;;;;;-0.73;100.00;102639.75;5092191;28;20484;-83
2024/03/07 05:46:41;;;;;;;108.57;36.53;;;;;;;-0.72;100.00;102627.53;5092522;28;20123;-82
2024/03/07 05:49:08;;;;;;;114.53;37.33;;;;;;;-0.72;100.00;102638.88;5073688;28;20032;-84
2024/03/07 05:51:33;;;;;;;104.05;37.10;;;;;;;-0.74;100.00;102632.78;5092297;28;20085;-83
2024/03/07 05:53:59;;;;;;;133.20;41.10;;;;;;;-0.76;100.00;102636.28;5092182;28;20032;-83
2024/03/07 05:56:24;;;;;;;112.18;38.53;;;;;;;-0.75;100.00;102632.78;5091906;28;20388;-83
2024/03/07 05:58:51;;;;;;;100.15;36.55;;;;;;;-0.79;100.00;102632.00;5057170;28;20035;-83
2024/03/07 06:01:17;;;;;;;108.88;37.85;;;;;;;-0.80;100.00;102630.25;5073329;28;20024;-83
2024/03/07 06:03:42;;;;;;;106.30;37.40;;;;;;;-0.82;100.00;102632.03;5073736;28;20501;-82
2024/03/07 06:06:11;;;;;;;117.40;39.40;;;;;;;-0.83;100.00;102629.44;5091927;28;20044;-86
2024/03/07 06:08:37;;;;;;;107.60;37.35;;;;;;;-0.83;100.00;102629.44;5073376;28;20096;-83
2024/03/07 06:11:02;;;;;;;124.25;44.00;;;;;;;-0.84;100.00;102627.72;5073756;28;20130;-82
2024/03/07 06:13:28;;;;;;;123.68;43.22;;;;;;;-0.85;100.00;102631.19;5091537;28;20028;-83
2024/03/07 06:15:53;;;;;;;119.20;42.00;;;;;;;-0.84;100.00;102633.78;5073928;28;20156;-83
2024/03/07 06:18:19;;;;;;;121.63;40.20;;;;;;;-0.83;100.00;102629.44;5073331;28;20032;-83
2024/03/07 06:20:44;;;;;;;126.57;42.22;;;;;;;-0.83;100.00;102635.53;5073775;28;20499;-83
2024/03/07 06:23:15;;;;;;;116.18;40.80;;;;;;;-0.83;100.00;102627.69;5091892;28;20405;-82
2024/03/07 06:25:50;;;;;;;138.52;42.45;;;;;;;-0.81;100.00;102627.66;5091990;28;20036;-83
2024/03/07 06:28:15;;;;;;;119.07;38.45;;;;;;;-0.81;100.00;102630.28;5091209;28;20024;-83
2024/03/07 06:30:49;;;;;;;131.90;41.25;;;;;;;-0.80;100.00;102632.88;5091507;28;20075;-83
2024/03/07 06:33:16;;;;;;;120.20;40.78;;;;;;;-0.77;100.00;102632.81;5072784;28;20031;-83
2024/03/07 06:35:41;;;;;;;146.27;43.40;;;;;;;-0.75;100.00;102631.06;5091815;28;20443;-84
2024/03/07 06:38:09;;;;;;;129.43;39.83;;;;;;;-0.70;100.00;102620.53;5091542;28;20065;-82
2024/03/07 06:40:36;;;;;;;143.77;46.47;;;;;;;-0.65;100.00;102623.94;5072525;28;20020;-82
2024/03/07 06:43:03;;;;;;;138.95;45.42;;;;;;;-0.60;100.00;102622.13;5053200;28;20043;-83
2024/03/07 06:45:30;;;;;;;140.82;45.80;;;;;;;-0.56;100.00;102628.16;5088488;28;20024;-82
2024/03/07 06:47:55;;;;;;;126.38;42.67;;;;;;;-0.49;100.00;102623.69;5088913;28;20118;-83
2024/03/07 06:50:21;;;;;;;136.63;44.22;;;;;;;-0.46;100.00;102623.63;5054087;28;20456;-86
2024/03/07 06:52:47;;;;;;;149.52;44.58;;;;;;;-0.40;100.00;102613.09;5070095;28;20046;-84
2024/03/07 06:55:19;;;;;;;140.82;42.38;;;;;;;-0.35;100.00;102616.50;5088201;28;20028;-84
2024/03/07 06:57:45;;;;;;;137.32;41.97;;;;;;;-0.26;100.00;102620.72;5088302;28;20081;-83
2024/03/07 07:00:21;;;;;;;137.13;43.40;;;;;;;-0.17;100.00;102619.72;5088471;28;20039;-81
2024/03/07 07:02:48;;;;;;;147.90;45.17;;;;;;;-0.09;100.00;102621.31;5071144;28;20034;-85
2024/03/07 07:05:18;;;;;;;142.50;44.47;;;;;;;-0.02;100.00;102617.66;5069088;28;20121;-82
2024/03/07 07:07:47;;;;;;;126.85;44.17;;;;;;;0.07;100.00;102624.50;5087139;28;20142;-84
2024/03/07 07:10:17;;;;;;;154.05;45.63;;;;;;;0.16;100.00;102616.50;5053243;28;20172;-84
2024/03/07 07:12:47;;;;;;;157.13;47.13;;;;;;;0.22;100.00;102615.50;5088061;28;20039;-83
2024/03/07 07:15:15;;;;;;;158.52;47.15;;;;;;;0.32;100.00;102619.66;5069457;28;20024;-83
2024/03/07 07:17:41;;;;;;;158.85;46.30;;;;;;;0.41;100.00;102620.41;5069023;28;20484;-81
2024/03/07 07:20:10;;;;;;;146.88;48.53;;;;;;;0.51;100.00;102629.81;5069255;28;20028;-81
2024/03/07 07:22:37;;;;;;;153.80;46.17;;;;;;;0.59;100.00;102621.78;5069241;28;20556;-82
2024/03/07 07:25:04;;;;;;;172.80;50.72;;;;;;;0.69;100.00;102626.81;5087905;28;20027;-84
2024/03/07 07:27:31;;;;;;;154.93;48.22;;;;;;;0.80;100.00;102629.19;5069398;28;20046;-84
2024/03/07 07:29:57;;;;;;;168.82;48.85;;;;;;;0.92;100.00;102627.22;5087605;28;20024;-84
2024/03/07 07:32:23;;;;;;;169.15;51.10;;;;;;;1.03;100.00;102625.22;5087500;28;20059;-82
2024/03/07 07:34:49;;;;;;;171.10;51.60;;;;;;;1.14;100.00;102633.72;5052880;28;20436;-83
2024/03/07 07:37:14;;;;;;;186.73;53.97;;;;;;;1.27;100.00;102633.44;5069419;28;20119;-83
2024/03/07 07:39:39;;;;;;;187.88;52.10;;;;;;;1.38;100.00;102634.06;5069499;28;20135;-82
2024/03/07 07:42:05;;;;;;;185.95;54.47;;;;;;;1.48;100.00;102629.44;5087781;28;20096;-83
2024/03/07 07:44:30;;;;;;;199.35;54.80;;;;;;;1.59;100.00;102633.53;5069058;28;20119;-84
2024/03/07 07:46:56;;;;;;;177.65;53.42;;;;;;;1.70;100.00;102629.78;5088316;28;20043;-84
2024/03/07 07:49:21;;;;;;;196.82;56.53;;;;;;;1.81;100.00;102626.91;5069390;28;20035;-84
2024/03/07 07:51:48;;;;;;;190.73;53.83;;;;;;;1.92;100.00;102632.75;5069474;28;20028;-85
2024/03/07 07:54:15;;;;;;;178.63;55.08;;;;;;;2.02;100.00;102623.75;5069099;28;20052;-85
2024/03/07 07:56:40;;;;;;;179.20;56.05;;;;;;;2.12;100.00;102619.13;5069012;28;20059;-85
2024/03/07 07:59:06;;;;;;;172.63;54.22;;;;;;;2.24;100.00;102621.41;5087920;28;20067;-84
2024/03/07 08:01:34;;;;;;;171.00;54.53;;;;;;;2.35;100.00;102631.63;5051767;28;20412;-84
2024/03/07 08:04:00;;;;;;;185.75;54.15;;;;;;;2.47;100.00;102625.16;5087338;28;20049;-84
2024/03/07 08:06:27;;;;;;;168.82;52.85;;;;;;;2.62;100.00;102623.88;5068699;28;20077;-85
2024/03/07 08:08:52;;;;;;;169.52;54.95;;;;;;;2.72;100.00;102625.34;5068898;28;20148;-84
2024/03/07 08:11:18;;;;;;;177.77;55.28;;;;;;;2.83;100.00;102623.22;5087311;28;20440;-85
2024/03/07 08:13:43;;;;;;;159.20;51.90;;;;;;;2.97;100.00;102627.22;5086957;28;20036;-84
2024/03/07 08:16:11;;;;;;;149.43;50.70;;;;;;;3.08;100.00;102625.16;5069951;28;20089;-82
2024/03/07 08:18:36;;;;;;;153.98;51.63;;;;;;;3.22;100.00;102615.97;5071546;28;20119;-82
2024/03/07 08:21:02;;;;;;;143.18;51.40;;;;;;;3.33;100.00;102629.66;5094015;28;20069;-82
2024/03/07 08:23:29;;;;;;;137.38;51.40;;;;;;;3.38;100.00;102622.47;5092754;28;20032;-83
2024/03/07 08:25:54;;;;;;;130.52;48.45;;;;;;;3.48;100.00;102625.69;5073181;28;20558;-84
2024/03/07 08:28:20;;;;;;;109.63;45.35;;;;;;;3.55;100.00;102627.19;5055929;28;20119;-82
2024/03/07 08:30:45;;;;;;;102.28;44.08;;;;;;;3.63;100.00;102624.31;5076555;28;20032;-86
2024/03/07 08:33:12;;;;;;;105.60;43.38;;;;;;;3.83;100.00;102618.38;5075634;28;20084;-83
2024/03/07 08:35:37;;;;;;;98.15;43.00;;;;;;;4.11;100.00;102615.66;5076226;28;20028;-87
2024/03/07 08:38:03;;;;;;;88.57;39.75;;;;;;;4.43;100.00;102618.06;5094516;28;20046;-79
2024/03/07 08:40:32;;;;;;;80.13;37.53;;;;;;;4.69;100.00;102615.31;5058556;28;20318;-85
2024/03/07 08:42:58;;;;;;;72.57;35.00;;;;;;;4.78;100.00;102614.13;5093586;28;20039;-82
2024/03/07 08:45:27;;;;;;;72.82;36.78;;;;;;;4.75;100.00;102607.19;5074282;28;20326;-82
2024/03/07 08:47:54;;;;;;;72.32;36.40;;;;;;;4.88;100.00;102607.59;5091910;28;20321;-81
2024/03/07 08:50:20;;;;;;;65.85;34.17;;;;;;;5.06;100.00;102600.75;5093075;28;20516;-81
2024/03/07 08:52:47;;;;;;;58.38;31.30;;;;;;;5.21;100.00;102599.28;5092571;28;20118;-82
2024/03/07 08:55:14;;;;;;;55.20;31.00;;;;;;;5.52;100.00;102590.09;5093739;28;20024;-88
2024/03/07 08:57:41;;;;;;;53.33;30.65;;;;;;;5.92;100.00;102579.63;5074464;28;20522;-84
2024/03/07 09:00:08;;;;;;;53.75;29.52;;;;;;;6.57;100.00;102571.50;5093754;28;20112;-85
2024/03/07 09:02:38;;;;;;;49.33;28.17;;;;;;;7.57;100.00;102566.72;5075170;28;20036;-84
2024/03/07 09:05:05;;;;;;;42.28;26.58;;;;;;;8.58;100.00;102559.72;5093703;28;20099;-86
2024/03/07 09:07:31;;;;;;;39.00;23.73;;;;;;;9.39;100.00;102562.25;5075168;28;20068;-87
2024/03/07 09:09:57;;;;;;;41.03;24.42;;;;;;;10.41;100.00;102559.66;5075087;28;20042;-86
2024/03/07 09:12:22;;;;;;;38.03;23.38;;;;;;;11.42;100.00;102559.41;5092991;28;20043;-89
2024/03/07 09:14:47;;;;;;;36.20;22.80;;;;;;;12.23;100.00;102564.66;5093294;28;20025;-85
2024/03/07 09:17:13;;;;;;;32.83;21.25;;;;;;;12.45;100.00;102566.63;5095456;28;20123;-86
2024/03/07 09:19:38;;;;;;;36.88;20.75;;;;;;;12.65;100.00;102562.53;5094274;28;20047;-90
2024/03/07 09:22:04;;;;;;;31.13;19.95;;;;;;;12.67;100.00;102564.16;5094027;28;20088;-89
2024/03/07 09:24:31;;;;;;;30.42;20.08;;;;;;;13.19;100.00;102561.28;5095570;28;20039;-88
2024/03/07 09:26:57;;;;;;;28.98;19.73;;;;;;;13.36;100.00;102560.91;5074753;28;20118;-89
2024/03/07 09:29:23;;;;;;;29.42;18.70;;;;;;;13.51;100.00;102558.91;5093449;28;20490;-86
2024/03/07 09:31:51;;;;;;;30.15;19.40;;;;;;;13.83;100.00;102552.03;5092613;28;20028;-85
2024/03/07 09:34:18;;;;;;;28.35;18.35;;;;;;;14.26;100.00;102554.88;5057741;28;20024;-84
2024/03/07 09:36:44;;;;;;;28.00;18.95;;;;;;;14.39;100.00;102548.53;5073883;28;20152;-86
2024/03/07 09:39:12;;;;;;;25.48;17.80;;;;;;;14.78;100.00;102549.88;5092974;28;20041;-83
2024/03/07 09:41:39;;;;;;;26.83;16.25;;;;;;;14.48;100.00;102552.31;5092587;28;20067;-85
2024/03/07 09:44:05;;;;;;;26.70;16.48;;;;;;;13.72;100.00;102553.72;5093207;28;20035;-81
2024/03/07 09:46:31;;;;;;;23.58;16.10;;;;;;;14.27;100.00;102550.38;5076000;28;20050;-84
2024/03/07 09:48:58;;;;;;;22.67;17.23;;;;;;;14.75;100.00;102551.94;5093100;28;20358;-79
2024/03/07 09:51:24;;;;;;;26.20;16.25;;;;;;;14.78;100.00;102546.34;5092885;28;20103;-84
2024/03/07 09:53:52;;;;;;;25.50;16.00;;;;;;;14.66;100.00;102539.28;5073411;28;20039;-81
2024/03/07 09:56:20;;;;;;;20.17;15.48;;;;;;;14.55;100.00;102543.66;5091193;28;20020;-80
2024/03/07 09:58:49;;;;;;;23.75;15.82;;;;;;;14.65;100.00;102545.66;5090945;28;20503;-79
2024/03/07 10:01:16;;;;;;;22.90;15.60;;;;;;;14.20;100.00;102543.81;5091580;28;20031;-81
2024/03/07 10:03:44;;;;;;;25.40;15.65;;;;;;;14.71;100.00;102545.13;5091924;28;20047;-87
2024/03/07 10:06:10;;;;;;;23.40;14.77;;;;;;;15.07;100.00;102543.09;5092186;28;20024;-80
2024/03/07 10:08:36;;;;;;;27.77;15.55;;;;;;;15.02;100.00;102534.56;5091981;28;20148;-83
2024/03/07 10:11:02;;;;;;;24.23;14.55;;;;;;;15.03;100.00;102534.44;5073020;28;20031;-81
2024/03/07 10:13:28;;;;;;;21.10;13.90;;;;;;;15.11;100.00;102531.16;5074284;28;20028;-82
2024/03/07 10:15:59;;;;;;;25.92;14.18;;;;;;;15.46;100.00;102525.47;5056915;28;20111;-82
2024/03/07 10:18:27;;;;;;;19.30;13.85;;;;;;;15.51;100.00;102528.63;5091599;28;20068;-81
2024/03/07 10:20:55;;;;;;;28.40;14.15;;;;;;;15.65;100.00;102530.13;5090751;28;20050;-83
2024/03/07 10:23:22;;;;;;;19.92;13.80;;;;;;;15.75;100.00;102524.84;5073291;28;20046;-82
2024/03/07 10:25:47;;;;;;;18.83;13.25;;;;;;;15.78;100.00;102524.59;5091045;28;20065;-80
2024/03/07 10:28:14;;;;;;;20.73;12.75;;;;;;;15.64;100.00;102520.38;5091402;28;20115;-82
2024/03/07 10:30:46;;;;;;;21.05;14.25;;;;;;;16.21;100.00;102517.28;5091245;28;20035;-81
2024/03/07 10:33:12;;;;;;;20.98;13.75;;;;;;;15.55;100.00;102520.31;5090752;28;20356;-82
2024/03/07 10:35:38;;;;;;;20.48;13.48;;;;;;;15.80;100.00;102505.69;5092354;28;20043;-83
2024/03/07 10:38:06;;;;;;;18.70;13.50;;;;;;;16.02;100.00;102505.50;5072877;28;20432;-85
2024/03/07 10:40:32;;;;;;;22.42;12.65;;;;;;;16.35;100.00;102514.25;5090101;28;20098;-81
2024/03/07 10:43:02;;;;;;;21.63;13.57;;;;;;;16.37;100.00;102504.22;5091521;28;20024;-84
2024/03/07 10:45:30;;;;;;;18.25;13.07;;;;;;;16.08;100.00;102508.63;5056259;28;20044;-87
2024/03/07 10:47:57;;;;;;;16.75;13.18;;;;;;;15.82;100.00;102495.66;5091869;28;20092;-85
2024/03/07 10:50:34;;;;;;;16.88;12.68;;;;;;;15.54;100.00;102503.38;5092030;28;20120;-81
2024/03/07 10:53:10;;;;;;;22.77;13.35;;;;;;;15.64;100.00;102503.44;5072150;28;20349;-84
2024/03/07 10:55:56;;;;;;;21.58;13.48;;;;;;;15.06;100.00;102496.69;5072197;28;20035;-84
2024/03/07 10:58:24;;;;;;;19.75;13.48;;;;;;;15.20;100.00;102495.50;5092234;28;20028;-84